createdAt,value
2018-12-20T00:00:09.995Z,3.00
2018-12-20T00:03:12.487Z,2.98
2018-12-20T00:06:14.367Z,2.89
2018-12-20T00:09:16.090Z,2.87
2018-12-20T00:12:18.105Z,2.83
2018-12-20T00:15:19.872Z,2.85
2018-12-20T00:18:21.907Z,2.84
2018-12-20T00:21:23.787Z,2.84
2018-12-20T00:24:25.622Z,2.87
2018-12-20T00:27:27.470Z,2.86
2018-12-20T00:30:29.303Z,2.87
2018-12-20T00:33:31.268Z,2.87
2018-12-20T00:36:33.353Z,2.81
2018-12-20T00:39:35.206Z,3.01
2018-12-20T00:42:37.052Z,3.07
2018-12-20T00:45:38.835Z,3.15
2018-12-20T00:48:40.726Z,3.12
2018-12-20T00:51:42.736Z,3.22
2018-12-20T00:54:44.655Z,3.23
2018-12-20T00:57:46.512Z,3.24
2018-12-20T01:00:48.718Z,3.23
2018-12-20T01:03:50.673Z,3.26
2018-12-20T01:06:52.658Z,3.28
2018-12-20T01:09:54.484Z,3.22
2018-12-20T01:12:56.394Z,3.17
2018-12-20T01:15:58.158Z,3.20
2018-12-20T01:19:00.016Z,3.13
2018-12-20T01:22:01.864Z,3.10
2018-12-20T01:25:03.984Z,3.20
2018-12-20T01:28:05.750Z,3.18
2018-12-20T01:31:07.564Z,3.16
2018-12-20T01:34:09.365Z,3.15
2018-12-20T01:37:11.332Z,3.12
2018-12-20T01:40:13.296Z,3.12
2018-12-20T01:43:15.206Z,3.22
2018-12-20T01:46:17.152Z,3.29
2018-12-20T01:49:19.314Z,3.31
2018-12-20T01:52:21.329Z,3.32
2018-12-20T01:55:23.228Z,3.42
2018-12-20T01:58:25.094Z,3.41
2018-12-20T02:01:26.925Z,3.41
2018-12-20T02:04:28.809Z,3.43
2018-12-20T02:07:30.642Z,3.44
2018-12-20T02:10:32.496Z,3.36
2018-12-20T02:13:34.494Z,3.35
2018-12-20T02:16:36.420Z,3.33
2018-12-20T02:19:38.588Z,3.29
2018-12-20T02:22:40.526Z,3.28
2018-12-20T02:25:42.385Z,3.22
2018-12-20T02:28:44.313Z,3.19
2018-12-20T02:31:46.308Z,3.19
2018-12-20T02:34:48.632Z,3.18
2018-12-20T02:37:51.026Z,3.19
2018-12-20T02:40:53.064Z,3.19
2018-12-20T02:43:56.197Z,3.19
2018-12-20T02:46:58.142Z,3.15
2018-12-20T02:50:00.173Z,3.09
2018-12-20T02:53:02.106Z,3.07
2018-12-20T02:56:04.046Z,3.02
2018-12-20T02:59:06.203Z,2.92
2018-12-20T03:02:07.971Z,2.91
2018-12-20T03:05:09.850Z,2.93
2018-12-20T03:08:12.022Z,2.86
2018-12-20T03:11:13.987Z,2.87
2018-12-20T03:14:16.117Z,2.79
2018-12-20T03:17:17.940Z,2.79
2018-12-20T03:20:19.974Z,2.85
2018-12-20T03:23:21.832Z,2.82
2018-12-20T03:26:23.860Z,2.79
2018-12-20T03:29:25.870Z,2.83
2018-12-20T03:32:27.786Z,2.82
2018-12-20T03:35:29.535Z,2.87
2018-12-20T03:38:31.507Z,2.85
2018-12-20T03:41:33.545Z,2.80
2018-12-20T03:44:35.473Z,2.73
2018-12-20T03:47:37.581Z,2.63
2018-12-20T03:50:39.658Z,2.57
2018-12-20T03:53:41.616Z,2.59
2018-12-20T03:56:43.442Z,2.54
2018-12-20T03:59:45.246Z,2.49
2018-12-20T04:02:47.413Z,2.46
2018-12-20T04:05:49.475Z,2.37
2018-12-20T04:08:51.379Z,2.32
2018-12-20T04:11:53.400Z,2.36
2018-12-20T04:14:55.377Z,2.32
2018-12-20T04:17:58.532Z,2.24
2018-12-20T04:21:00.625Z,2.25
2018-12-20T04:24:02.705Z,2.21
2018-12-20T04:27:04.607Z,2.13
2018-12-20T04:30:06.845Z,2.03
2018-12-20T04:33:08.963Z,2.05
2018-12-20T04:36:11.299Z,2.08
2018-12-20T04:39:13.208Z,2.07
2018-12-20T04:42:15.026Z,1.99
2018-12-20T04:45:16.959Z,1.99
2018-12-20T04:48:18.920Z,1.98
2018-12-20T04:51:22.063Z,1.95
2018-12-20T04:54:23.995Z,2.03
2018-12-20T04:57:26.096Z,2.02
2018-12-20T05:00:27.984Z,1.99
2018-12-20T05:03:29.780Z,2.08
2018-12-20T05:06:31.701Z,2.01
2018-12-20T05:09:33.608Z,2.02
2018-12-20T05:12:35.488Z,2.03
2018-12-20T05:15:37.304Z,1.99
2018-12-20T05:18:39.352Z,2.02
2018-12-20T05:21:41.297Z,1.96
2018-12-20T05:24:44.327Z,1.95
2018-12-20T05:27:46.318Z,1.95
2018-12-20T05:30:48.387Z,2.00
2018-12-20T05:33:50.308Z,2.07
2018-12-20T05:36:52.327Z,2.11
2018-12-20T05:39:54.240Z,2.12
2018-12-20T05:42:56.255Z,2.08
2018-12-20T05:46:04.426Z,2.15
2018-12-20T05:49:02.184Z,2.13
2018-12-20T05:52:04.166Z,2.16
2018-12-20T05:55:06.080Z,2.16
2018-12-20T05:58:07.993Z,2.15
2018-12-20T06:01:10.005Z,2.20
2018-12-20T06:04:12.129Z,2.18
2018-12-20T06:07:14.147Z,2.24
2018-12-20T06:10:16.070Z,2.19
2018-12-20T06:13:17.863Z,2.20
2018-12-20T06:16:20.095Z,2.25
2018-12-20T06:19:22.398Z,2.23
2018-12-20T06:22:24.338Z,2.19
2018-12-20T06:25:26.157Z,2.22
2018-12-20T06:28:27.959Z,2.18
2018-12-20T06:31:29.986Z,2.14
2018-12-20T06:34:31.842Z,2.13
2018-12-20T06:37:33.786Z,2.09
2018-12-20T06:40:35.726Z,2.02
2018-12-20T06:43:38.704Z,2.00
2018-12-20T06:46:42.560Z,1.99
2018-12-20T06:49:44.482Z,1.97
2018-12-20T06:52:46.287Z,2.05
2018-12-20T06:55:48.155Z,1.96
2018-12-20T06:58:49.982Z,1.91
2018-12-20T07:01:51.747Z,1.95
2018-12-20T07:04:53.745Z,2.02
2018-12-20T07:07:55.763Z,2.02
2018-12-20T07:10:57.843Z,2.06
2018-12-20T07:13:59.729Z,2.08
2018-12-20T07:17:01.649Z,2.10
2018-12-20T07:20:04.506Z,2.08
2018-12-20T07:23:06.460Z,2.10
2018-12-20T07:26:08.356Z,2.09
2018-12-20T07:29:10.314Z,2.13
2018-12-20T07:32:13.315Z,2.11
2018-12-20T07:35:15.302Z,2.05
2018-12-20T07:38:17.138Z,2.10
2018-12-20T07:41:19.135Z,2.22
2018-12-20T07:44:21.086Z,2.18
2018-12-20T07:47:24.070Z,2.22
2018-12-20T07:50:25.980Z,2.20
2018-12-20T07:53:27.837Z,2.23
2018-12-20T07:56:29.741Z,2.24
2018-12-20T07:59:31.625Z,2.19
2018-12-20T08:02:33.445Z,2.10
2018-12-20T08:05:35.346Z,2.10
2018-12-20T08:08:37.129Z,2.17
2018-12-20T08:11:39.000Z,2.19
2018-12-20T08:14:40.808Z,2.19
2018-12-20T08:17:42.734Z,2.18
2018-12-20T08:20:44.556Z,2.13
2018-12-20T08:23:46.458Z,2.19
2018-12-20T08:26:48.426Z,2.27
2018-12-20T08:29:50.353Z,2.42
2018-12-20T08:32:52.224Z,2.66
2018-12-20T08:35:54.066Z,2.84
2018-12-20T08:38:55.983Z,3.11
2018-12-20T08:41:57.803Z,3.16
2018-12-20T08:44:59.594Z,3.24
2018-12-20T08:48:01.431Z,3.25
2018-12-20T08:51:04.789Z,3.30
2018-12-20T08:54:06.577Z,3.26
2018-12-20T08:57:08.364Z,3.26
2018-12-20T09:00:10.354Z,3.23
2018-12-20T09:03:12.364Z,3.24
2018-12-20T09:06:14.151Z,3.27
2018-12-20T09:09:16.057Z,3.35
2018-12-20T09:12:18.042Z,3.34
2018-12-20T09:15:20.076Z,3.36
2018-12-20T09:18:22.094Z,3.34
2018-12-20T09:21:23.949Z,3.43
2018-12-20T09:24:25.797Z,3.48
2018-12-20T09:27:27.732Z,3.67
2018-12-20T09:30:30.583Z,3.73
2018-12-20T09:33:32.789Z,3.64
2018-12-20T09:36:34.605Z,3.63
2018-12-20T09:39:36.416Z,3.81
2018-12-20T09:42:38.250Z,3.90
2018-12-20T09:45:40.171Z,3.89
2018-12-20T09:48:42.096Z,3.97
2018-12-20T09:51:44.056Z,4.00
2018-12-20T09:54:45.898Z,3.96
2018-12-20T09:57:47.791Z,3.98
2018-12-20T10:00:49.697Z,4.20
2018-12-20T10:03:51.558Z,4.39
2018-12-20T10:06:53.382Z,4.49
2018-12-20T10:09:55.225Z,4.65
2018-12-20T10:12:57.016Z,4.63
2018-12-20T10:15:58.861Z,4.46
2018-12-20T10:19:00.715Z,4.34
2018-12-20T10:22:02.498Z,4.29
2018-12-20T10:25:04.670Z,4.19
2018-12-20T10:28:06.510Z,4.02
2018-12-20T10:31:08.539Z,4.04
2018-12-20T10:34:10.531Z,3.96
2018-12-20T10:37:12.396Z,3.98
2018-12-20T10:40:14.325Z,3.95
2018-12-20T10:43:16.289Z,3.89
2018-12-20T10:46:18.191Z,3.85
2018-12-20T10:49:20.037Z,3.88
2018-12-20T10:52:21.939Z,3.92
2018-12-20T10:55:23.989Z,3.82
2018-12-20T10:58:25.812Z,3.75
2018-12-20T11:01:33.611Z,3.73
2018-12-20T11:04:41.416Z,3.81
2018-12-20T11:07:49.394Z,3.89
2018-12-20T11:10:53.349Z,3.90
2018-12-20T11:13:55.136Z,4.06
2018-12-20T11:16:58.155Z,4.16
2018-12-20T11:19:59.997Z,4.25
2018-12-20T11:23:01.797Z,4.37
2018-12-20T11:26:03.594Z,4.45
2018-12-20T11:29:05.395Z,4.46
2018-12-20T11:32:07.351Z,4.52
2018-12-20T11:35:10.218Z,4.60
2018-12-20T11:38:13.185Z,4.59
2018-12-20T11:41:14.898Z,4.64
2018-12-20T11:44:16.684Z,4.73
2018-12-20T11:47:24.435Z,4.79
2018-12-20T11:50:26.248Z,4.85
2018-12-20T11:53:28.058Z,4.87
2018-12-20T11:56:30.251Z,4.92
2018-12-20T11:59:32.258Z,4.96
2018-12-20T12:02:34.382Z,5.01
2018-12-20T12:05:36.374Z,5.00
2018-12-20T12:08:38.252Z,5.12
2018-12-20T12:11:40.069Z,5.18
2018-12-20T12:14:41.801Z,5.32
2018-12-20T12:17:43.656Z,5.33
2018-12-20T12:20:45.518Z,5.37
2018-12-20T12:23:47.412Z,5.35
2018-12-20T12:26:49.247Z,5.33
2018-12-20T12:29:51.318Z,5.40
2018-12-20T12:32:53.289Z,5.40
2018-12-20T12:35:55.100Z,5.44
2018-12-20T12:38:57.239Z,5.49
2018-12-20T12:41:58.973Z,5.53
2018-12-20T12:45:00.911Z,5.54
2018-12-20T12:48:03.856Z,5.44
2018-12-20T12:51:06.037Z,5.30
2018-12-20T12:54:07.959Z,5.28
2018-12-20T12:57:09.865Z,5.21
2018-12-20T13:00:13.974Z,5.09
2018-12-20T13:03:15.748Z,5.07
2018-12-20T13:06:17.608Z,5.00
2018-12-20T13:09:19.358Z,5.01
2018-12-20T13:12:21.198Z,4.95
2018-12-20T13:15:22.960Z,4.84
2018-12-20T13:18:24.804Z,4.77
2018-12-20T13:21:26.562Z,4.82
2018-12-20T13:24:29.419Z,4.78
2018-12-20T13:27:31.227Z,4.69
2018-12-20T13:30:33.056Z,4.64
2018-12-20T13:33:34.936Z,4.58
2018-12-20T13:36:36.873Z,4.50
2018-12-20T13:39:38.771Z,4.37
2018-12-20T13:42:40.550Z,4.27
2018-12-20T13:45:42.336Z,4.17
2018-12-20T13:48:44.164Z,4.13
2018-12-20T13:51:46.110Z,4.17
2018-12-20T13:54:48.267Z,4.14
2018-12-20T13:57:50.221Z,4.07
2018-12-20T14:00:52.255Z,4.04
2018-12-20T14:03:54.230Z,4.07
2018-12-20T14:06:56.120Z,3.96
2018-12-20T14:09:58.052Z,3.83
2018-12-20T14:12:59.879Z,3.80
2018-12-20T14:16:01.648Z,3.82
2018-12-20T14:19:03.541Z,3.80
2018-12-20T14:22:05.286Z,3.80
2018-12-20T14:25:08.213Z,3.84
2018-12-20T14:28:10.016Z,3.85
2018-12-20T14:31:12.090Z,3.79
2018-12-20T14:34:13.983Z,3.78
2018-12-20T14:37:16.154Z,3.71
2018-12-20T14:40:18.164Z,3.63
2018-12-20T14:43:20.024Z,3.60
2018-12-20T14:46:21.848Z,3.56
2018-12-20T14:49:23.723Z,3.60
2018-12-20T14:52:25.499Z,3.62
2018-12-20T14:55:27.358Z,3.70
2018-12-20T14:58:29.210Z,3.68
2018-12-20T15:01:31.015Z,3.67
2018-12-20T15:04:32.852Z,3.72
2018-12-20T15:07:34.753Z,3.71
2018-12-20T15:10:36.591Z,3.70
2018-12-20T15:13:38.372Z,3.66
2018-12-20T15:16:40.228Z,3.64
2018-12-20T15:19:41.963Z,3.64
2018-12-20T15:22:43.784Z,3.63
2018-12-20T15:25:45.579Z,3.65
2018-12-20T15:28:47.461Z,3.65
2018-12-20T15:31:53.323Z,3.61
2018-12-20T15:34:53.267Z,3.59
2018-12-20T15:37:55.156Z,3.57
2018-12-20T15:40:57.153Z,3.59
2018-12-20T15:43:59.053Z,3.65
2018-12-20T15:47:00.866Z,3.60
2018-12-20T15:50:04.340Z,3.60
2018-12-20T15:53:06.253Z,3.56
2018-12-20T15:56:08.018Z,3.40
2018-12-20T15:59:09.819Z,3.27
2018-12-20T16:02:11.563Z,3.24
2018-12-20T16:05:13.495Z,3.17
2018-12-20T16:08:15.534Z,3.11
2018-12-20T16:11:17.503Z,3.00
2018-12-20T16:14:20.154Z,3.06
2018-12-20T16:17:22.047Z,3.08
2018-12-20T16:20:24.003Z,2.99
2018-12-20T16:23:25.868Z,2.98
2018-12-20T16:26:27.672Z,2.92
2018-12-20T16:29:29.614Z,2.89
2018-12-20T16:32:31.571Z,2.79
2018-12-20T16:35:33.557Z,2.77
2018-12-20T16:38:35.397Z,2.77
2018-12-20T16:41:37.215Z,2.78
2018-12-20T16:44:39.042Z,2.82
2018-12-20T16:47:40.914Z,2.80
2018-12-20T16:50:43.028Z,2.80
2018-12-20T16:53:44.970Z,2.80
2018-12-20T16:56:46.852Z,2.86
2018-12-20T16:59:48.844Z,2.85
2018-12-20T17:02:50.775Z,2.89
2018-12-20T17:05:53.185Z,2.85
2018-12-20T17:08:55.106Z,2.89
2018-12-20T17:11:57.145Z,2.87
2018-12-20T17:14:59.117Z,2.92
2018-12-20T17:18:01.102Z,2.94
2018-12-20T17:21:02.900Z,3.01
2018-12-20T17:24:04.699Z,3.04
2018-12-20T17:27:06.506Z,3.02
2018-12-20T17:30:08.460Z,2.98
2018-12-20T17:33:10.296Z,2.98
2018-12-20T17:36:12.287Z,2.98
2018-12-20T17:39:14.138Z,3.04
2018-12-20T17:42:15.954Z,3.04
2018-12-20T17:45:17.723Z,3.04
2018-12-20T17:48:19.565Z,3.02
2018-12-20T17:51:21.449Z,3.06
2018-12-20T17:54:23.424Z,3.04
2018-12-20T17:57:25.403Z,3.06
2018-12-20T18:00:27.424Z,3.13
2018-12-20T18:03:29.295Z,3.22
2018-12-20T18:06:31.282Z,3.30
2018-12-20T18:09:33.102Z,3.31
2018-12-20T18:12:34.935Z,3.33
2018-12-20T18:15:36.719Z,3.32
2018-12-20T18:18:38.560Z,3.33
2018-12-20T18:21:40.332Z,3.41
2018-12-20T18:24:42.278Z,3.46
2018-12-20T18:27:44.102Z,3.45
2018-12-20T18:30:45.979Z,3.41
2018-12-20T18:33:48.373Z,3.45
2018-12-20T18:36:50.439Z,3.52
2018-12-20T18:39:52.620Z,3.53
2018-12-20T18:42:54.594Z,3.54
2018-12-20T18:45:56.607Z,3.56
2018-12-20T18:48:58.544Z,3.58
2018-12-20T18:52:00.413Z,3.62
2018-12-20T18:55:02.572Z,3.67
2018-12-20T18:58:04.457Z,3.69
2018-12-20T19:01:06.314Z,3.77
2018-12-20T19:04:08.155Z,3.81
2018-12-20T19:07:10.006Z,3.91
2018-12-20T19:10:11.899Z,4.01
2018-12-20T19:13:14.962Z,4.02
2018-12-20T19:16:17.048Z,4.06
2018-12-20T19:19:18.882Z,4.17
2018-12-20T19:22:21.125Z,4.23
2018-12-20T19:25:23.242Z,4.29
2018-12-20T19:28:25.018Z,4.34
2018-12-20T19:31:26.919Z,4.33
2018-12-20T19:34:28.745Z,4.26
2018-12-20T19:37:30.572Z,4.19
2018-12-20T19:40:33.414Z,4.19
2018-12-20T19:43:35.402Z,4.11
2018-12-20T19:46:37.255Z,3.98
2018-12-20T19:49:39.134Z,3.91
2018-12-20T19:52:40.983Z,3.85
2018-12-20T19:55:43.185Z,3.74
2018-12-20T19:58:45.129Z,3.79
2018-12-20T20:01:47.976Z,3.88
2018-12-20T20:04:49.748Z,3.89
2018-12-20T20:07:51.663Z,3.96
2018-12-20T20:10:54.005Z,3.99
2018-12-20T20:13:56.814Z,3.94
2018-12-20T20:16:58.763Z,3.96
2018-12-20T20:20:03.920Z,3.97
2018-12-20T20:23:05.988Z,3.90
2018-12-20T20:26:07.842Z,3.91
2018-12-20T20:29:09.772Z,3.91
2018-12-20T20:32:12.014Z,3.91
2018-12-20T20:35:13.945Z,3.94
2018-12-20T20:38:15.824Z,3.99
2018-12-20T20:41:17.618Z,3.98
2018-12-20T20:44:20.523Z,3.98
2018-12-20T20:47:22.445Z,3.95
2018-12-20T20:50:24.469Z,3.92
2018-12-20T20:53:26.368Z,3.92
2018-12-20T20:56:29.347Z,3.96
2018-12-20T20:59:32.068Z,3.96
2018-12-20T21:02:33.866Z,3.97
2018-12-20T21:05:35.705Z,3.98
2018-12-20T21:08:37.495Z,3.98
2018-12-20T21:11:39.367Z,3.97
2018-12-20T21:14:41.318Z,4.01
2018-12-20T21:17:43.227Z,4.05
2018-12-20T21:20:45.033Z,4.08
2018-12-20T21:23:46.872Z,4.09
2018-12-20T21:26:48.721Z,4.13
2018-12-20T21:29:50.527Z,4.10
2018-12-20T21:32:52.357Z,4.03
2018-12-20T21:35:54.168Z,4.03
2018-12-20T21:38:56.012Z,4.06
2018-12-20T21:41:57.871Z,4.09
2018-12-20T21:44:59.797Z,4.14
2018-12-20T21:48:01.563Z,4.13
2018-12-20T21:51:03.472Z,4.09
2018-12-20T21:54:05.249Z,4.07
2018-12-20T21:57:07.098Z,4.09
2018-12-20T22:00:09.236Z,4.11
2018-12-20T22:03:11.204Z,4.15
2018-12-20T22:06:13.245Z,4.13
2018-12-20T22:09:15.864Z,4.17
2018-12-20T22:12:17.678Z,4.18
2018-12-20T22:15:19.626Z,4.25
2018-12-20T22:18:21.657Z,4.27
2018-12-20T22:21:24.697Z,4.27
2018-12-20T22:24:26.526Z,4.29
2018-12-20T22:27:28.302Z,4.32
2018-12-20T22:30:30.115Z,4.33
2018-12-20T22:33:31.866Z,4.39
2018-12-20T22:36:33.722Z,4.38
2018-12-20T22:39:35.552Z,4.44
2018-12-20T22:42:37.391Z,4.39
2018-12-20T22:45:39.274Z,4.46
2018-12-20T22:48:41.122Z,4.50
2018-12-20T22:51:42.984Z,4.51
2018-12-20T22:54:45.046Z,4.53
2018-12-20T22:57:46.880Z,4.55
2018-12-20T23:00:51.118Z,4.51
2018-12-20T23:03:52.890Z,4.43
2018-12-20T23:06:54.715Z,4.44
2018-12-20T23:09:56.483Z,4.46
2018-12-20T23:12:58.249Z,4.43
2018-12-20T23:16:00.015Z,4.41
2018-12-20T23:19:01.899Z,4.43
2018-12-20T23:22:03.625Z,4.40
2018-12-20T23:25:05.603Z,4.43
2018-12-20T23:28:07.429Z,4.44
2018-12-20T23:31:09.304Z,4.45
2018-12-20T23:34:11.100Z,4.44
2018-12-20T23:37:12.978Z,4.39
2018-12-20T23:40:14.698Z,4.39
2018-12-20T23:43:16.570Z,4.37
2018-12-20T23:46:18.409Z,4.38
2018-12-20T23:49:20.319Z,4.38
2018-12-20T23:52:22.114Z,4.33
2018-12-20T23:55:24.005Z,4.33
2018-12-20T23:58:25.749Z,4.32
